nws-alerts: Checking more than four warning/county codes can delay the loading of your pages. You should use a cron job to get the data.
EllijayWeather Station Historical Data
Daily Summary for February 22, 2019 Units:  English    Metric   Both
Daily Weekly Monthly Yearly Custom
  High: Low: Average:
Temperature: 55.2 °F 49.3 °F 52 °F
Dew Point: 55.2 °F 48.4 °F 51.5 °F
Humidity: 100% 94% 99%
Wind Speed: 6.0mph 0.0mph 0.3mph
Wind Gust: 12.0mph - -
Wind- - SE
Pressure: 30.26 in 30.13 in -
Precipitation: 1.03 in    
Historical Graphs
 
 
Tabular Data for February 22, 2019
Time Temperature Dew Point Pressure Wind Wind Speed Wind Gust Humidity Rainfall Rate (Hourly) solar
00:04 51.4 °F 51.1 °F 30.14 in Calm     99% 0.07 in meteobridge W/m2
00:09 51.3 °F 50.9 °F 30.15 in Calm     99% 0.06 in meteobridge W/m2
00:14 51.3 °F 50.9 °F 30.15 in Calm     99% 0.05 in meteobridge W/m2
00:19 51.3 °F 50.9 °F 30.15 in Calm     99% 0.05 in meteobridge W/m2
00:24 51.3 °F 50.9 °F 30.15 in Calm     99% 0.07 in meteobridge W/m2
00:29 51.3 °F 50.9 °F 30.15 in Calm     99% 0.07 in meteobridge W/m2
00:34 51.4 °F 51.1 °F 30.15 in Calm     99% 0.07 in meteobridge W/m2
00:39 51.4 °F 51.1 °F 30.15 in Calm     99% 0.07 in meteobridge W/m2
00:44 51.4 °F 51.1 °F 30.15 in Calm     99% 0.06 in meteobridge W/m2
00:49 51.4 °F 51.1 °F 30.14 in Calm     99% 0.06 in meteobridge W/m2
00:54 51.4 °F 51.1 °F 30.14 in Calm     99% 0.06 in meteobridge W/m2
00:59 51.4 °F 51.1 °F 30.14 in Calm     99% 0.05 in meteobridge W/m2
01:04 51.4 °F 51.1 °F 30.14 in Calm     99% 0.05 in meteobridge W/m2
01:09 51.4 °F 51.4 °F 30.14 in Calm     100% 0.06 in meteobridge W/m2
01:14 51.4 °F 51.4 °F 30.14 in Calm     100% 0.06 in meteobridge W/m2
01:19 51.4 °F 51.4 °F 30.14 in Calm     100% 0.05 in meteobridge W/m2
01:24 51.6 °F 51.6 °F 30.14 in Calm     100% 0.02 in meteobridge W/m2
01:29 51.6 °F 51.3 °F 30.14 in Calm     99% 0.01 in meteobridge W/m2
01:34 51.6 °F 51.3 °F 30.14 in Calm     99% 0.02 in meteobridge W/m2
01:39 51.6 °F 51.3 °F 30.13 in Calm     99% 0.02 in meteobridge W/m2
01:44 51.6 °F 51.3 °F 30.14 in Calm     99% 0.02 in meteobridge W/m2
01:49 51.6 °F 51.3 °F 30.14 in Calm     99% 0.03 in meteobridge W/m2
01:54 51.6 °F 51.3 °F 30.13 in Calm     99% 0.04 in meteobridge W/m2
01:59 51.6 °F 51.3 °F 30.13 in Calm     99% 0.04 in meteobridge W/m2
02:04 51.6 °F 51.3 °F 30.14 in Calm     99% 0.05 in meteobridge W/m2
02:09 51.6 °F 51.6 °F 30.14 in Calm     100% 0.05 in meteobridge W/m2
02:14 51.6 °F 51.6 °F 30.14 in Calm     100% 0.05 in meteobridge W/m2
02:19 51.6 °F 51.3 °F 30.14 in Calm     99% 0.06 in meteobridge W/m2
02:24 51.8 °F 51.4 °F 30.14 in Calm   1.0 mph 99% 0.08 in meteobridge W/m2
02:29 51.6 °F 51.3 °F 30.13 in Calm     99% 0.08 in meteobridge W/m2
02:34 51.6 °F 51.3 °F 30.13 in Calm     99% 0.07 in meteobridge W/m2
02:39 51.6 °F 51.6 °F 30.13 in Calm     100% 0.07 in meteobridge W/m2
02:44 51.4 °F 51.1 °F 30.13 in Calm     99% 0.07 in meteobridge W/m2
02:49 51.4 °F 51.4 °F 30.14 in Calm   2.0 mph 100% 0.07 in meteobridge W/m2
02:54 51.6 °F 51.6 °F 30.13 in Calm   1.0 mph 100% 0.06 in meteobridge W/m2
02:59 51.4 °F 51.1 °F 30.13 in Calm     99% 0.06 in meteobridge W/m2
03:04 51.4 °F 51.4 °F 30.13 in Calm     100% 0.06 in meteobridge W/m2
03:09 51.4 °F 51.4 °F 30.13 in Calm     100% 0.07 in meteobridge W/m2
03:14 51.4 °F 51.4 °F 30.13 in Calm     100% 0.08 in meteobridge W/m2
03:19 51.6 °F 51.6 °F 30.13 in Calm     100% 0.09 in meteobridge W/m2
03:24 51.4 °F 51.4 °F 30.13 in Calm     100% 0.08 in meteobridge W/m2
03:29 51.4 °F 51.4 °F 30.13 in Calm     100% 0.09 in meteobridge W/m2
03:34 51.6 °F 51.6 °F 30.13 in Calm     100% 0.09 in meteobridge W/m2
03:39 51.6 °F 51.6 °F 30.14 in Calm     100% 0.09 in meteobridge W/m2
03:44 51.4 °F 51.4 °F 30.14 in Calm   1.0 mph 100% 0.09 in meteobridge W/m2
03:49 51.4 °F 51.4 °F 30.14 in Calm     100% 0.08 in meteobridge W/m2
03:54 51.3 °F 51.3 °F 30.14 in Calm     100% 0.08 in meteobridge W/m2
03:59 51.3 °F 50.9 °F 30.14 in Calm     99% 0.08 in meteobridge W/m2
04:04 51.1 °F 50.7 °F 30.14 in Calm     99% 0.07 in meteobridge W/m2
04:09 51.1 °F 50.7 °F 30.14 in Calm     99% 0.05 in meteobridge W/m2
04:14 51.1 °F 50.7 °F 30.14 in Calm     99% 0.04 in meteobridge W/m2
04:19 51.1 °F 50.7 °F 30.15 in Calm     99% 0.02 in meteobridge W/m2
04:24 51.1 °F 50.7 °F 30.15 in Calm     99% 0.02 in meteobridge W/m2
04:29 50.9 °F 50.5 °F 30.15 in Calm     99% 0.01 in meteobridge W/m2
04:34 50.9 °F 50.9 °F 30.15 in Calm     100% 0.01 in meteobridge W/m2
04:39 50.9 °F 50.9 °F 30.15 in Calm     100% 0.01 in meteobridge W/m2
04:44 51.1 °F 51.1 °F 30.15 in Calm     100% 0.01 in meteobridge W/m2
04:49 51.1 °F 51.1 °F 30.14 in Calm     100% 0.01 in meteobridge W/m2
04:54 51.1 °F 51.1 °F 30.14 in Calm     100% 0.01 in meteobridge W/m2
04:59 51.1 °F 51.1 °F 30.14 in Calm     100% 0.01 in meteobridge W/m2
05:04 51.1 °F 51.1 °F 30.14 in Calm     100% 0.01 in meteobridge W/m2
05:09 51.1 °F 51.1 °F 30.14 in Calm     100% 0.02 in meteobridge W/m2
05:14 51.1 °F 51.1 °F 30.15 in Calm     100% 0.02 in meteobridge W/m2
05:19 51.3 °F 51.3 °F 30.15 in Calm     100% 0.02 in meteobridge W/m2
05:24 51.3 °F 51.3 °F 30.15 in Calm     100% 0.01 in meteobridge W/m2
05:29 51.3 °F 51.3 °F 30.15 in Calm     100% 0.01 in meteobridge W/m2
05:34 51.3 °F 51.3 °F 30.15 in Calm     100% 0.01 in meteobridge W/m2
05:39 51.3 °F 51.3 °F 30.16 in Calm     100% 0.01 in meteobridge W/m2
05:44 51.3 °F 51.3 °F 30.16 in Calm   1.0 mph 100% 0.01 in meteobridge W/m2
05:49 51.3 °F 51.3 °F 30.16 in Calm     100% 0.01 in meteobridge W/m2
05:54 51.3 °F 51.3 °F 30.16 in Calm     100% 0.01 in meteobridge W/m2
05:59 51.3 °F 51.3 °F 30.16 in Calm   1.0 mph 100% 0.01 in meteobridge W/m2
06:04 51.3 °F 51.3 °F 30.16 in Calm     100% 0.01 in meteobridge W/m2
06:09 51.1 °F 51.1 °F 30.16 in Calm     100% 0.00 in meteobridge W/m2
06:14 51.1 °F 51.1 °F 30.17 in Calm     100% 0.00 in meteobridge W/m2
06:19 51.1 °F 51.1 °F 30.17 in Calm     100% 0.00 in meteobridge W/m2
06:24 51.1 °F 51.1 °F 30.17 in Calm     100% 0.00 in meteobridge W/m2
06:29 51.1 °F 51.1 °F 30.17 in Calm     100% 0.00 in meteobridge W/m2
06:34 51.1 °F 51.1 °F 30.17 in Calm     100% 0.00 in meteobridge W/m2
06:39 51.1 °F 51.1 °F 30.17 in Calm   1.0 mph 100% 0.00 in meteobridge W/m2
06:44 51.1 °F 51.1 °F 30.17 in Calm     100% 0.00 in meteobridge W/m2
06:49 51.1 °F 51.1 °F 30.17 in Calm     100% 0.00 in meteobridge W/m2
06:54 50.9 °F 50.9 °F 30.17 in Calm     100% 0.00 in meteobridge W/m2
06:59 50.9 °F 50.9 °F 30.17 in Calm     100% 0.00 in meteobridge W/m2
07:04 50.9 °F 50.9 °F 30.17 in Calm     100% 0.00 in meteobridge W/m2
07:09 51.1 °F 51.1 °F 30.18 in Calm     100% 0.00 in meteobridge W/m2
07:14 51.1 °F 51.1 °F 30.18 in Calm     100% 0.00 in meteobridge W/m2
07:19 51.1 °F 51.1 °F 30.18 in Calm     100% 0.00 in meteobridge W/m2
07:24 51.1 °F 51.1 °F 30.17 in Calm     100% 0.00 in meteobridge W/m2
07:29 51.1 °F 51.1 °F 30.18 in Calm     100% 0.00 in meteobridge W/m2
07:34 51.1 °F 51.1 °F 30.18 in Calm     100% 0.00 in meteobridge W/m2
07:39 51.3 °F 51.3 °F 30.18 in Calm     100% 0.00 in meteobridge W/m2
07:44 51.3 °F 51.3 °F 30.18 in Calm   1.0 mph 100% 0.00 in meteobridge W/m2
07:49 51.3 °F 51.3 °F 30.19 in Calm     100% 0.00 in meteobridge W/m2
07:54 51.3 °F 51.3 °F 30.19 in Calm     100% 0.00 in meteobridge W/m2
07:59 51.3 °F 51.3 °F 30.19 in Calm     100% 0.00 in meteobridge W/m2
08:04 51.3 °F 51.3 °F 30.19 in Calm   2.0 mph 100% 0.00 in meteobridge W/m2
08:09 51.3 °F 51.3 °F 30.19 in Calm     100% 0.00 in meteobridge W/m2
08:14 51.3 °F 51.3 °F 30.18 in Calm   1.0 mph 100% 0.04 in meteobridge W/m2
08:19 51.3 °F 51.3 °F 30.18 in Calm     100% 0.04 in meteobridge W/m2
08:24 51.3 °F 51.3 °F 30.18 in Calm     100% 0.04 in meteobridge W/m2
08:29 51.4 °F 51.4 °F 30.19 in Calm     100% 0.04 in meteobridge W/m2
08:34 51.4 °F 51.4 °F 30.19 in Calm     100% 0.04 in meteobridge W/m2
08:39 51.4 °F 51.4 °F 30.19 in Calm     100% 0.04 in meteobridge W/m2
08:44 51.4 °F 51.4 °F 30.19 in Calm     100% 0.04 in meteobridge W/m2
08:49 51.4 °F 51.4 °F 30.19 in Calm     100% 0.04 in meteobridge W/m2
08:54 51.4 °F 51.4 °F 30.20 in Calm     100% 0.04 in meteobridge W/m2
08:59 51.6 °F 51.6 °F 30.19 in Calm     100% 0.05 in meteobridge W/m2
09:04 51.6 °F 51.6 °F 30.19 in Calm     100% 0.07 in meteobridge W/m2
09:09 51.8 °F 51.8 °F 30.20 in Calm     100% 0.08 in meteobridge W/m2
09:14 51.8 °F 51.8 °F 30.20 in Calm     100% 0.05 in meteobridge W/m2
09:19 51.8 °F 51.8 °F 30.20 in Calm     100% 0.06 in meteobridge W/m2
09:24 52.0 °F 52.0 °F 30.20 in Calm     100% 0.08 in meteobridge W/m2
09:29 52.0 °F 52.0 °F 30.20 in Calm     100% 0.08 in meteobridge W/m2
09:34 52.0 °F 52.0 °F 30.20 in Calm     100% 0.08 in meteobridge W/m2
09:39 52.2 °F 52.2 °F 30.20 in Calm     100% 0.08 in meteobridge W/m2
09:44 52.2 °F 52.2 °F 30.22 in Calm     100% 0.08 in meteobridge W/m2
09:49 52.2 °F 52.2 °F 30.21 in Calm   1.0 mph 100% 0.09 in meteobridge W/m2
09:54 52.2 °F 52.2 °F 30.21 in Calm     100% 0.12 in meteobridge W/m2
09:59 52.3 °F 52.3 °F 30.21 in Calm   2.0 mph 100% 0.14 in meteobridge W/m2
10:04 52.3 °F 52.3 °F 30.21 in Calm     100% 0.13 in meteobridge W/m2
10:09 52.5 °F 52.5 °F 30.22 in Calm   1.0 mph 100% 0.13 in meteobridge W/m2
10:14 52.5 °F 52.5 °F 30.21 in Calm     100% 0.13 in meteobridge W/m2
10:19 52.7 °F 52.7 °F 30.21 in Calm     100% 0.13 in meteobridge W/m2
10:24 52.9 °F 52.9 °F 30.22 in Calm   2.0 mph 100% 0.14 in meteobridge W/m2
10:29 52.9 °F 52.9 °F 30.22 in Calm   2.0 mph 100% 0.15 in meteobridge W/m2
10:34 53.1 °F 53.1 °F 30.22 in Calm   2.0 mph 100% 0.16 in meteobridge W/m2
10:39 53.1 °F 53.1 °F 30.22 in NNW 0.9 mph 2.0 mph 100% 0.16 in meteobridge W/m2
10:44 53.2 °F 53.2 °F 30.22 in Calm   1.0 mph 100% 0.17 in meteobridge W/m2
10:49 53.2 °F 53.2 °F 30.21 in Calm     100% 0.16 in meteobridge W/m2
10:54 53.4 °F 53.4 °F 30.21 in Calm   1.0 mph 100% 0.13 in meteobridge W/m2
10:59 54.1 °F 54.1 °F 30.21 in Calm     100% 0.10 in meteobridge W/m2
11:04 54.3 °F 54.3 °F 30.21 in Calm     100% 0.09 in meteobridge W/m2
11:09 54.7 °F 54.7 °F 30.22 in ENE 2.0 mph 2.0 mph 100% 0.09 in meteobridge W/m2
11:14 55.2 °F 55.2 °F 30.21 in Calm   3.0 mph 100% 0.08 in meteobridge W/m2
11:19 55.2 °F 55.2 °F 30.21 in Calm   3.0 mph 100% 0.07 in meteobridge W/m2
11:24 55.2 °F 55.2 °F 30.22 in Calm   1.0 mph 100% 0.04 in meteobridge W/m2
11:29 55.2 °F 55.2 °F 30.22 in East 0.9 mph 1.0 mph 100% 0.06 in meteobridge W/m2
11:34 55.0 °F 55.0 °F 30.22 in East 2.0 mph 6.0 mph 100% 0.07 in meteobridge W/m2
11:39 54.9 °F 54.9 °F 30.22 in SSE 4.0 mph 7.0 mph 100% 0.12 in meteobridge W/m2
11:44 54.9 °F 54.9 °F 30.23 in Calm   2.0 mph 100% 0.17 in meteobridge W/m2
11:49 54.7 °F 54.7 °F 30.23 in ESE 4.0 mph 7.0 mph 100% 0.22 in meteobridge W/m2
11:54 54.7 °F 54.3 °F 30.22 in Calm   4.0 mph 99% 0.26 in meteobridge W/m2
11:59 54.7 °F 54.3 °F 30.23 in Calm   5.0 mph 99% 0.27 in meteobridge W/m2
12:04 54.5 °F 54.1 °F 30.23 in East 0.9 mph 5.0 mph 99% 0.29 in meteobridge W/m2
12:09 54.5 °F 54.1 °F 30.23 in Calm   7.0 mph 99% 0.28 in meteobridge W/m2
12:14 54.5 °F 54.0 °F 30.23 in ESE 2.0 mph 6.0 mph 98% 0.29 in meteobridge W/m2
12:19 54.3 °F 53.8 °F 30.23 in SSE 0.9 mph 6.0 mph 98% 0.29 in meteobridge W/m2
12:24 54.3 °F 53.8 °F 30.23 in Calm   6.0 mph 98% 0.30 in meteobridge W/m2
12:29 54.3 °F 53.8 °F 30.23 in Calm   2.0 mph 98% 0.29 in meteobridge W/m2
12:34 54.3 °F 54.0 °F 30.23 in Calm   1.0 mph 99% 0.28 in meteobridge W/m2
12:39 54.3 °F 54.0 °F 30.23 in ESE 0.9 mph 2.0 mph 99% 0.23 in meteobridge W/m2
12:44 54.3 °F 54.0 °F 30.23 in Calm     99% 0.19 in meteobridge W/m2
12:49 54.3 °F 54.0 °F 30.22 in Calm   1.0 mph 99% 0.14 in meteobridge W/m2
12:54 54.3 °F 54.0 °F 30.22 in Calm   1.0 mph 99% 0.11 in meteobridge W/m2
12:59 54.1 °F 53.6 °F 30.22 in ESE 2.0 mph 4.0 mph 98% 0.10 in meteobridge W/m2
13:04 54.1 °F 53.6 °F 30.22 in ESE 0.9 mph 5.0 mph 98% 0.08 in meteobridge W/m2
13:09 54.0 °F 53.1 °F 30.21 in SE 0.9 mph 6.0 mph 97% 0.09 in meteobridge W/m2
13:14 53.8 °F 52.9 °F 30.21 in Calm   6.0 mph 97% 0.08 in meteobridge W/m2
13:19 53.6 °F 53.1 °F 30.21 in SE 2.0 mph 4.0 mph 98% 0.08 in meteobridge W/m2
13:24 53.4 °F 52.9 °F 30.21 in East 0.9 mph 1.0 mph 98% 0.07 in meteobridge W/m2
13:29 53.2 °F 52.3 °F 30.21 in Calm   4.0 mph 97% 0.05 in meteobridge W/m2
13:34 53.2 °F 52.7 °F 30.21 in Calm   4.0 mph 98% 0.04 in meteobridge W/m2
13:39 53.2 °F 52.7 °F 30.21 in Calm   2.0 mph 98% 0.04 in meteobridge W/m2
13:44 53.2 °F 52.7 °F 30.21 in Calm   1.0 mph 98% 0.02 in meteobridge W/m2
13:49 53.2 °F 52.7 °F 30.21 in Calm     98% 0.01 in meteobridge W/m2
13:54 53.2 °F 52.7 °F 30.22 in Calm   2.0 mph 98% 0.01 in meteobridge W/m2
13:59 53.1 °F 52.5 °F 30.22 in Calm     98% 0.02 in meteobridge W/m2
14:04 53.1 °F 52.5 °F 30.22 in Calm     98% 0.02 in meteobridge W/m2
14:09 52.9 °F 52.3 °F 30.22 in Calm     98% 0.01 in meteobridge W/m2
14:14 53.1 °F 52.7 °F 30.22 in Calm     99% 0.01 in meteobridge W/m2
14:19 53.1 °F 52.7 °F 30.22 in Calm     99% 0.01 in meteobridge W/m2
14:24 53.1 °F 52.7 °F 30.22 in Calm     99% 0.01 in meteobridge W/m2
14:29 53.1 °F 52.7 °F 30.22 in Calm     99% 0.01 in meteobridge W/m2
14:34 53.1 °F 52.7 °F 30.21 in Calm     99% 0.01 in meteobridge W/m2
14:39 53.1 °F 52.5 °F 30.21 in ESE 2.0 mph 4.0 mph 98% 0.01 in meteobridge W/m2
14:44 53.1 °F 52.7 °F 30.21 in Calm     99% 0.01 in meteobridge W/m2
14:49 53.1 °F 52.5 °F 30.21 in Calm     98% 0.01 in meteobridge W/m2
14:54 53.1 °F 52.5 °F 30.21 in ESE 0.9 mph 4.0 mph 98% 0.01 in meteobridge W/m2
14:59 53.1 °F 52.5 °F 30.21 in Calm   2.0 mph 98% 0.00 in meteobridge W/m2
15:04 53.1 °F 52.5 °F 30.21 in Calm     98% 0.00 in meteobridge W/m2
15:09 53.1 °F 52.2 °F 30.21 in Calm     97% 0.00 in meteobridge W/m2
15:14 52.9 °F 52.0 °F 30.21 in East 4.0 mph 4.0 mph 97% 0.00 in meteobridge W/m2
15:19 52.9 °F 52.0 °F 30.21 in Calm     97% 0.00 in meteobridge W/m2
15:24 52.7 °F 52.2 °F 30.21 in Calm   1.0 mph 98% 0.00 in meteobridge W/m2
15:29 52.7 °F 51.8 °F 30.21 in Calm   2.0 mph 97% 0.00 in meteobridge W/m2
15:34 52.5 °F 51.6 °F 30.21 in Calm   2.0 mph 97% 0.00 in meteobridge W/m2
15:39 52.3 °F 51.4 °F 30.21 in Calm   4.0 mph 97% 0.00 in meteobridge W/m2
15:44 52.3 °F 51.4 °F 30.21 in Calm   1.0 mph 97% 0.00 in meteobridge W/m2
15:49 52.2 °F 51.3 °F 30.22 in Calm   1.0 mph 97% 0.00 in meteobridge W/m2
15:54 52.2 °F 51.3 °F 30.21 in Calm   1.0 mph 97% 0.00 in meteobridge W/m2
15:59 52.0 °F 51.4 °F 30.21 in Calm   2.0 mph 98% 0.01 in meteobridge W/m2
16:04 52.0 °F 51.1 °F 30.21 in Calm   5.0 mph 97% 0.01 in meteobridge W/m2
16:09 52.0 °F 51.1 °F 30.21 in SE 2.0 mph 2.0 mph 97% 0.01 in meteobridge W/m2
16:14 52.0 °F 51.1 °F 30.22 in Calm     97% 0.01 in meteobridge W/m2
16:19 52.0 °F 51.4 °F 30.22 in Calm     98% 0.01 in meteobridge W/m2
16:24 52.0 °F 51.1 °F 30.22 in Calm     97% 0.01 in meteobridge W/m2
16:29 52.0 °F 51.4 °F 30.22 in Calm     98% 0.01 in meteobridge W/m2
16:34 52.2 °F 51.6 °F 30.22 in Calm     98% 0.01 in meteobridge W/m2
16:39 52.2 °F 51.8 °F 30.22 in Calm     99% 0.01 in meteobridge W/m2
16:44 52.3 °F 51.8 °F 30.22 in Calm     98% 0.01 in meteobridge W/m2
16:49 52.3 °F 51.8 °F 30.21 in Calm     98% 0.01 in meteobridge W/m2
16:54 52.3 °F 51.8 °F 30.21 in Calm     98% 0.01 in meteobridge W/m2
16:59 52.3 °F 51.8 °F 30.21 in Calm     98% 0.00 in meteobridge W/m2
17:04 52.3 °F 51.8 °F 30.21 in Calm     98% 0.00 in meteobridge W/m2
17:09 52.3 °F 51.8 °F 30.21 in Calm     98% 0.00 in meteobridge W/m2
17:14 52.5 °F 52.0 °F 30.21 in Calm     98% 0.00 in meteobridge W/m2
17:19 52.5 °F 52.0 °F 30.21 in Calm     98% 0.00 in meteobridge W/m2
17:24 52.5 °F 51.6 °F 30.22 in Calm     97% 0.00 in meteobridge W/m2
17:29 52.5 °F 52.0 °F 30.22 in Calm     98% 0.00 in meteobridge W/m2
17:34 52.5 °F 51.6 °F 30.21 in Calm   1.0 mph 97% 0.00 in meteobridge W/m2
17:39 52.5 °F 51.6 °F 30.21 in Calm   1.0 mph 97% 0.00 in meteobridge W/m2
17:44 52.3 °F 51.3 °F 30.21 in Calm   4.0 mph 96% 0.00 in meteobridge W/m2
17:49 52.3 °F 51.4 °F 30.21 in Calm     97% 0.00 in meteobridge W/m2
17:54 52.3 °F 51.4 °F 30.22 in Calm     97% 0.00 in meteobridge W/m2
17:59 52.2 °F 51.3 °F 30.22 in Calm   2.0 mph 97% 0.00 in meteobridge W/m2
18:04 52.2 °F 51.3 °F 30.22 in Calm     97% 0.00 in meteobridge W/m2
18:09 52.2 °F 51.3 °F 30.22 in Calm   2.0 mph 97% 0.00 in meteobridge W/m2
18:14 52.2 °F 51.3 °F 30.22 in Calm     97% 0.00 in meteobridge W/m2
18:19 52.0 °F 51.1 °F 30.22 in Calm     97% 0.00 in meteobridge W/m2
18:24 52.0 °F 51.1 °F 30.22 in Calm   1.0 mph 97% 0.00 in meteobridge W/m2
18:29 52.0 °F 50.9 °F 30.22 in Calm     96% 0.00 in meteobridge W/m2
18:34 52.0 °F 51.1 °F 30.23 in Calm     97% 0.00 in meteobridge W/m2
18:39 52.0 °F 51.1 °F 30.23 in Calm     97% 0.00 in meteobridge W/m2
18:44 52.0 °F 51.1 °F 30.23 in Calm     97% 0.00 in meteobridge W/m2
18:49 52.0 °F 51.1 °F 30.23 in Calm     97% 0.00 in meteobridge W/m2
18:54 52.0 °F 50.9 °F 30.23 in Calm     96% 0.00 in meteobridge W/m2
18:59 52.0 °F 51.1 °F 30.22 in Calm     97% 0.00 in meteobridge W/m2
19:04 52.0 °F 51.1 °F 30.23 in Calm     97% 0.00 in meteobridge W/m2
19:09 52.0 °F 51.1 °F 30.22 in Calm   1.0 mph 97% 0.00 in meteobridge W/m2
19:14 51.8 °F 50.9 °F 30.22 in Calm     97% 0.00 in meteobridge W/m2
19:19 51.6 °F 50.7 °F 30.23 in Calm     97% 0.00 in meteobridge W/m2
19:24 51.8 °F 50.9 °F 30.23 in Calm     97% 0.00 in meteobridge W/m2
19:29 51.8 °F 50.9 °F 30.23 in Calm     97% 0.00 in meteobridge W/m2
19:34 51.8 °F 50.9 °F 30.23 in Calm     97% 0.00 in meteobridge W/m2
19:39 51.8 °F 51.3 °F 30.23 in Calm     98% 0.00 in meteobridge W/m2
19:44 52.0 °F 51.1 °F 30.23 in Calm     97% 0.00 in meteobridge W/m2
19:49 51.8 °F 50.9 °F 30.23 in Calm     97% 0.00 in meteobridge W/m2
19:54 52.0 °F 51.1 °F 30.23 in Calm     97% 0.00 in meteobridge W/m2
19:59 52.0 °F 51.1 °F 30.24 in Calm     97% 0.00 in meteobridge W/m2
20:04 52.0 °F 51.1 °F 30.23 in SE 0.9 mph 1.0 mph 97% 0.00 in meteobridge W/m2
20:09 52.0 °F 51.1 °F 30.23 in Calm     97% 0.00 in meteobridge W/m2
20:14 52.0 °F 51.1 °F 30.24 in SE 0.9 mph 1.0 mph 97% 0.00 in meteobridge W/m2
20:19 52.0 °F 51.1 °F 30.24 in Calm     97% 0.00 in meteobridge W/m2
20:24 52.0 °F 51.1 °F 30.24 in Calm     97% 0.00 in meteobridge W/m2
20:29 52.0 °F 51.1 °F 30.24 in SE 0.9 mph 4.0 mph 97% 0.00 in meteobridge W/m2
20:34 52.2 °F 51.1 °F 30.23 in Calm   5.0 mph 96% 0.00 in meteobridge W/m2
20:39 52.2 °F 51.3 °F 30.23 in Calm   1.0 mph 97% 0.00 in meteobridge W/m2
20:44 52.0 °F 51.1 °F 30.24 in Calm     97% 0.00 in meteobridge W/m2
20:49 52.0 °F 51.1 °F 30.23 in Calm     97% 0.00 in meteobridge W/m2
20:54 51.8 °F 50.9 °F 30.23 in SE 0.9 mph 1.0 mph 97% 0.00 in meteobridge W/m2
20:59 51.6 °F 50.7 °F 30.24 in Calm     97% 0.00 in meteobridge W/m2
21:04 51.6 °F 50.7 °F 30.23 in Calm     97% 0.00 in meteobridge W/m2
21:09 51.4 °F 50.5 °F 30.24 in Calm     97% 0.00 in meteobridge W/m2
21:14 51.4 °F 50.5 °F 30.23 in SE 2.0 mph 2.0 mph 97% 0.00 in meteobridge W/m2
21:19 51.4 °F 50.5 °F 30.23 in Calm   1.0 mph 97% 0.00 in meteobridge W/m2
21:24 51.4 °F 50.4 °F 30.23 in Calm   4.0 mph 96% 0.00 in meteobridge W/m2
21:29 51.3 °F 50.2 °F 30.23 in Calm     96% 0.00 in meteobridge W/m2
21:34 51.3 °F 50.2 °F 30.23 in Calm   1.0 mph 96% 0.00 in meteobridge W/m2
21:39 51.3 °F 50.4 °F 30.23 in Calm   4.0 mph 97% 0.00 in meteobridge W/m2
21:44 51.1 °F 50.2 °F 30.24 in Calm     97% 0.00 in meteobridge W/m2
21:49 51.1 °F 50.2 °F 30.24 in Calm     97% 0.00 in meteobridge W/m2
21:54 51.1 °F 50.2 °F 30.24 in Calm     97% 0.00 in meteobridge W/m2
21:59 51.1 °F 50.5 °F 30.25 in Calm     98% 0.00 in meteobridge W/m2
22:04 51.1 °F 50.2 °F 30.25 in SE 4.0 mph 4.0 mph 97% 0.00 in meteobridge W/m2
22:09 51.3 °F 50.4 °F 30.25 in SE 0.9 mph 2.0 mph 97% 0.00 in meteobridge W/m2
22:14 51.4 °F 50.0 °F 30.25 in Calm   2.0 mph 95% 0.00 in meteobridge W/m2
22:19 51.4 °F 50.0 °F 30.24 in Calm   2.0 mph 95% 0.00 in meteobridge W/m2
22:24 51.6 °F 50.2 °F 30.25 in Calm   2.0 mph 95% 0.00 in meteobridge W/m2
22:29 51.4 °F 50.0 °F 30.24 in Calm   4.0 mph 95% 0.00 in meteobridge W/m2
22:34 51.4 °F 49.8 °F 30.24 in Calm   5.0 mph 94% 0.00 in meteobridge W/m2
22:39 51.3 °F 49.8 °F 30.24 in SE 0.9 mph 4.0 mph 95% 0.00 in meteobridge W/m2
22:44 51.1 °F 49.6 °F 30.24 in ESE 2.0 mph 4.0 mph 95% 0.00 in meteobridge W/m2
22:49 50.9 °F 49.5 °F 30.26 in Calm   4.0 mph 95% 0.00 in meteobridge W/m2
22:54 50.7 °F 49.6 °F 30.25 in Calm   4.0 mph 96% 0.02 in meteobridge W/m2
22:59 50.4 °F 49.3 °F 30.25 in ESE 2.0 mph 5.0 mph 96% 0.03 in meteobridge W/m2
23:04 50.4 °F 49.5 °F 30.25 in SE 4.0 mph 4.0 mph 97% 0.04 in meteobridge W/m2
23:09 50.2 °F 49.1 °F 30.24 in Calm   12.0 mph 96% 0.05 in meteobridge W/m2
23:14 50.2 °F 49.3 °F 30.24 in SE 4.9 mph 12.0 mph 97% 0.06 in meteobridge W/m2
23:19 50.0 °F 48.9 °F 30.24 in SE 6.0 mph 7.0 mph 96% 0.06 in meteobridge W/m2
23:24 49.8 °F 48.9 °F 30.23 in ESE 2.0 mph 8.0 mph 97% 0.07 in meteobridge W/m2
23:29 49.6 °F 48.7 °F 30.24 in Calm   5.0 mph 97% 0.07 in meteobridge W/m2
23:34 49.6 °F 48.7 °F 30.23 in ESE 2.0 mph 6.0 mph 97% 0.07 in meteobridge W/m2
23:39 49.6 °F 48.7 °F 30.23 in SE 4.9 mph 7.0 mph 97% 0.08 in meteobridge W/m2
23:44 49.5 °F 48.6 °F 30.23 in SE 2.0 mph 5.0 mph 97% 0.08 in meteobridge W/m2
23:49 49.3 °F 48.7 °F 30.23 in NNW 0.9 mph 2.0 mph 98% 0.08 in meteobridge W/m2
23:54 49.3 °F 48.4 °F 30.22 in East 4.0 mph 4.0 mph 97% 0.07 in meteobridge W/m2
23:59 49.3 °F 48.4 °F 30.22 in Calm     97% 0.06 in meteobridge W/m2
EllijayWeather
Compliments of Weather Underground - 2.5 mb